Página principal
METAR-TAF:

METAR-TAF

Aeroportos :

Aeroporto Roland Garros

Saint-Denis, Reunião

latitude: 20-53S, longitude: 055-31E, altura: 21 m

Observação actual do tempo

O boletim foi feito há 31 minutos, às 02:30 UTC
Vento 12 kt de es-sudeste
Temperatura 21°C
Humidade 69%
Pressão 1019 hPa
Visibilidade 10 km ou mais
Poucas nuvensa uma altura de 2600 ft
Nuvens dispersasa uma altura de 7600 ft

METAR: FMEE 240230Z 12012KT 9999 FEW026 SCT076 21/15 Q1019 NOSIG

Hora: 07:01 (03:01 UTC)

Previsão

O boletim foi feito há 4 horas e 1 minutos, às 23:00 UTC
Previsão válida de 24 às 00 UTC a 25 às 06 UTC
Vento 8 kt de su-sudeste
Visibilidade 10 km ou mais
Poucas nuvensa uma altura de 2600 ft
Nuvens dispersasa uma altura de 4600 ft
Tornando-se
de 24 às 04 UTC a 24 às 06 UTC
Vento 18 kt de es-sudeste com rajadas de 28 kt
Tornando-se
de 24 às 15 UTC a 24 às 17 UTC
Vento 10 kt de es-sudeste

TAF: FMEE 232300Z 2400/2506 16008KT 9999 FEW026 SCT046 BECMG 2404/2406 12018G28KT BECMG 2415/2417 12010KT

Observações e previsões do tempo de mais de 4000 aeroportos (mensagens METAR e TAF).

As estações disponíveis são os pontos amarelos e vermelhos sobre o mapa.

Mova o rato sobre o mapa para ver o nome da estação.

Depois clique no ponto para visualizar as observações e previsões meteorológicas.

Para alterar o mapa : clique nos botões verdes com uma cruz preta para aumentar o zoom; no botão verde com uma pitada de zoom; ou nas setas verdes para mapas adjacentes.


METAR-TAF: